Time;durP1;ratioP1;P1;durP2;ratioP2;P2;SDS_P1;SDS_P2;PMS_P1;PMS_P2;Temp;Humidity;BMP_temperature;BMP_pressure;BME280_temperature;BME280_humidity;BME280_pressure;Samples;Min_cycle;Max_cycle;Signal;HPM_P1;HPM_P2
2023/05/22 00:00:12;;;;;;;4.50;3.85;;;;;;;;;;5074346;28;20049;-62
2023/05/22 00:02:41;;;;;;;4.57;4.10;;;;;;;;;;5074144;28;20078;-63
2023/05/22 00:05:10;;;;;;;6.00;3.80;;;;;;;;;;5073950;28;20068;-62
2023/05/22 00:07:37;;;;;;;4.80;3.75;;;;;;;;;;5074334;28;20134;-62
2023/05/22 00:10:04;;;;;;;6.10;3.90;;;;;;;;;;5074172;28;20040;-62
2023/05/22 00:12:30;;;;;;;5.32;4.55;;;;;;;;;;5074379;28;20044;-62
2023/05/22 00:14:57;;;;;;;4.93;4.32;;;;;;;;;;5074166;28;20470;-63
2023/05/22 00:17:25;;;;;;;5.35;4.07;;;;;;;;;;5073893;28;20083;-63
2023/05/22 00:19:52;;;;;;;;;;;;;;;;;;5073272;28;20067;-62
2023/05/22 00:22:19;;;;;;;;;;;;;;;;;;5074608;28;20045;-62
2023/05/22 00:24:45;;;;;;;4.47;4.05;;;;;;;;;;5073684;28;20269;-62
2023/05/22 00:27:11;;;;;;;5.15;4.63;;;;;;;;;;5073656;28;20041;-62
2023/05/22 00:29:38;;;;;;;4.53;3.97;;;;;;;;;;5073641;28;20044;-63
2023/05/22 00:32:04;;;;;;;5.68;4.60;;;;;;;;;;5059530;28;20117;-63
2023/05/22 00:34:31;;;;;;;6.03;4.60;;;;;;;;;;5073836;28;20048;-62
2023/05/22 00:36:57;;;;;;;5.32;4.32;;;;;;;;;;5073772;28;20131;-62
2023/05/22 00:39:24;;;;;;;5.68;4.20;;;;;;;;;;5073807;28;20044;-62
2023/05/22 00:41:50;;;;;;;4.72;4.30;;;;;;;;;;5073403;28;20074;-62
2023/05/22 00:44:17;;;;;;;5.28;4.10;;;;;;;;;;5061314;28;20070;-63
2023/05/22 00:46:43;;;;;;;5.82;4.13;;;;;;;;;;5073227;28;20101;-62
2023/05/22 00:49:10;;;;;;;5.60;4.38;;;;;;;;;;5073285;28;20084;-62
2023/05/22 00:51:36;;;;;;;4.82;3.78;;;;;;;;;;5073529;28;20041;-62
2023/05/22 00:54:03;;;;;;;5.28;4.40;;;;;;;;;;5073221;28;20515;-63
2023/05/22 00:56:30;;;;;;;6.15;4.25;;;;;;;;;;5073182;28;20048;-63
2023/05/22 00:58:57;;;;;;;4.97;4.00;;;;;;;;;;5073066;28;20048;-63
2023/05/22 01:01:25;;;;;;;5.87;4.10;;;;;;;;;;5073277;28;20052;-62
2023/05/22 01:03:52;;;;;;;6.93;4.32;;;;;;;;;;5072163;28;20488;-62
2023/05/22 01:06:22;;;;;;;5.47;4.47;;;;;;;;;;5072701;28;20060;-63
2023/05/22 01:08:48;;;;;;;5.78;4.45;;;;;;;;;;5072973;28;20102;-62
2023/05/22 01:11:21;;;;;;;6.30;4.00;;;;;;;;;;5073241;28;20098;-63
2023/05/22 01:14:02;;;;;;;5.15;3.95;;;;;;;;;;5072838;28;20045;-62
2023/05/22 01:16:43;;;;;;;5.30;4.07;;;;;;;;;;5072787;28;20048;-63
2023/05/22 01:19:29;;;;;;;4.68;4.10;;;;;;;;;;5072809;28;20529;-63
2023/05/22 01:22:03;;;;;;;4.22;3.78;;;;;;;;;;5072861;28;20083;-63
2023/05/22 01:24:30;;;;;;;4.47;3.95;;;;;;;;;;5072602;28;20508;-63
2023/05/22 01:27:05;;;;;;;5.28;4.00;;;;;;;;;;5072719;28;20110;-63
2023/05/22 01:29:45;;;;;;;4.80;3.55;;;;;;;;;;5072644;28;20106;-62
2023/05/22 01:32:13;;;;;;;7.20;4.45;;;;;;;;;;5072417;28;20471;-63
2023/05/22 01:34:41;;;;;;;5.38;4.30;;;;;;;;;;5072420;28;20055;-63
2023/05/22 01:37:08;;;;;;;4.45;3.90;;;;;;;;;;5072287;28;20488;-63
2023/05/22 01:39:35;;;;;;;6.80;4.32;;;;;;;;;;5072646;28;20450;-62
2023/05/22 01:42:02;;;;;;;5.67;4.40;;;;;;;;;;5072585;28;20052;-62
2023/05/22 01:44:28;;;;;;;5.20;3.90;;;;;;;;;;5072473;28;20102;-63
2023/05/22 01:46:59;;;;;;;3.88;3.58;;;;;;;;;;5072078;28;20044;-63
2023/05/22 01:49:26;;;;;;;5.28;3.90;;;;;;;;;;5072379;28;20044;-63
2023/05/22 01:51:57;;;;;;;5.38;4.40;;;;;;;;;;5072429;28;20053;-62
2023/05/22 01:54:24;;;;;;;5.43;4.18;;;;;;;;;;5072004;28;20048;-63
2023/05/22 01:56:54;;;;;;;7.90;4.50;;;;;;;;;;5072294;28;20462;-63
2023/05/22 01:59:29;;;;;;;4.53;3.97;;;;;;;;;;5071966;28;20051;-62
2023/05/22 02:01:57;;;;;;;6.20;4.10;;;;;;;;;;5072256;28;20044;-62
2023/05/22 02:04:23;;;;;;;;;;;;;;;;;;5072366;28;20060;-63
2023/05/22 02:06:51;;;;;;;6.47;4.32;;;;;;;;;;5071721;28;20387;-62
2023/05/22 02:09:20;;;;;;;4.40;4.00;;;;;;;;;;5072212;28;20091;-62
2023/05/22 02:11:46;;;;;;;4.75;4.28;;;;;;;;;;5072036;28;20098;-62
2023/05/22 02:14:14;;;;;;;8.30;4.55;;;;;;;;;;5071889;28;20049;-62
2023/05/22 02:16:41;;;;;;;5.40;4.22;;;;;;;;;;5071860;28;20458;-62
2023/05/22 02:19:07;;;;;;;4.82;4.30;;;;;;;;;;5071912;28;20052;-62
2023/05/22 02:21:34;;;;;;;5.55;4.70;;;;;;;;;;5071974;28;20479;-63
2023/05/22 02:24:01;;;;;;;4.45;4.05;;;;;;;;;;5071711;28;20048;-62
2023/05/22 02:26:27;;;;;;;5.85;4.20;;;;;;;;;;5071540;28;20080;-63
2023/05/22 02:28:54;;;;;;;6.07;4.22;;;;;;;;;;5071602;28;20043;-62
2023/05/22 02:31:21;;;;;;;6.40;4.60;;;;;;;;;;5071806;28;20381;-63
2023/05/22 02:33:47;;;;;;;5.65;4.82;;;;;;;;;;5071533;28;20510;-63
2023/05/22 02:36:13;;;;;;;6.75;4.60;;;;;;;;;;5071670;28;20109;-62
2023/05/22 02:38:40;;;;;;;5.35;4.28;;;;;;;;;;5071725;28;20059;-62
2023/05/22 02:41:07;;;;;;;7.38;4.47;;;;;;;;;;5071514;28;20040;-62
2023/05/22 02:43:33;;;;;;;4.95;4.32;;;;;;;;;;5071481;28;20064;-62
2023/05/22 02:46:00;;;;;;;6.15;4.35;;;;;;;;;;5071544;28;20040;-63
2023/05/22 02:48:28;;;;;;;5.80;5.20;;;;;;;;;;5071566;28;20048;-62
2023/05/22 02:50:54;;;;;;;;;;;;;;;;;;5071964;28;20094;-63
2023/05/22 02:53:20;;;;;;;6.55;4.90;;;;;;;;;;5071304;28;20338;-62
2023/05/22 02:55:47;;;;;;;6.22;4.78;;;;;;;;;;5071351;28;20045;-63
2023/05/22 02:58:13;;;;;;;6.63;5.07;;;;;;;;;;5071495;28;20049;-62
2023/05/22 03:00:40;;;;;;;5.85;5.13;;;;;;;;;;5071632;28;20056;-62
2023/05/22 03:03:06;;;;;;;5.60;5.10;;;;;;;;;;5071545;28;20080;-62
2023/05/22 03:05:33;;;;;;;5.90;5.07;;;;;;;;;;5071100;28;20094;-63
2023/05/22 03:08:00;;;;;;;6.57;5.25;;;;;;;;;;5071147;28;20080;-63
2023/05/22 03:10:26;;;;;;;6.68;5.70;;;;;;;;;;5071288;28;20048;-62
2023/05/22 03:12:53;;;;;;;6.72;5.10;;;;;;;;;;5071595;28;20253;-63
2023/05/22 03:15:19;;;;;;;7.22;5.47;;;;;;;;;;5064751;28;20048;-62
2023/05/22 03:17:46;;;;;;;6.78;5.55;;;;;;;;;;5071113;28;20056;-62
2023/05/22 03:20:15;;;;;;;9.82;6.05;;;;;;;;;;5071107;28;20062;-62
2023/05/22 03:22:42;;;;;;;8.27;6.03;;;;;;;;;;5071528;28;20052;-62
2023/05/22 03:25:09;;;;;;;8.35;6.30;;;;;;;;;;5071319;28;20048;-63
2023/05/22 03:27:36;;;;;;;7.43;6.00;;;;;;;;;;5073478;28;20105;-62
2023/05/22 03:30:03;;;;;;;6.88;5.57;;;;;;;;;;5075136;28;20094;-62
2023/05/22 03:32:29;;;;;;;7.43;5.97;;;;;;;;;;5074850;28;20102;-62
2023/05/22 03:34:57;;;;;;;10.02;6.07;;;;;;;;;;5074662;28;20044;-62
2023/05/22 03:37:23;;;;;;;9.18;5.80;;;;;;;;;;5074650;28;20102;-62
2023/05/22 03:39:50;;;;;;;8.88;5.88;;;;;;;;;;5074898;28;20434;-63
2023/05/22 03:42:16;;;;;;;7.82;5.32;;;;;;;;;;5073662;28;20053;-63
2023/05/22 03:44:43;;;;;;;11.30;6.20;;;;;;;;;;5074756;28;20049;-62
2023/05/22 03:47:09;;;;;;;12.80;5.95;;;;;;;;;;5074515;28;20492;-62
2023/05/22 03:49:35;;;;;;;16.70;6.63;;;;;;;;;;5074391;28;20101;-63
2023/05/22 03:52:02;;;;;;;11.82;6.20;;;;;;;;;;5074338;28;20090;-62
2023/05/22 03:54:28;;;;;;;11.50;5.95;;;;;;;;;;5074666;28;20064;-63
2023/05/22 03:56:55;;;;;;;6.65;5.95;;;;;;;;;;5074173;28;20508;-63
2023/05/22 03:59:21;;;;;;;7.72;5.95;;;;;;;;;;5074432;28;20080;-62
2023/05/22 04:01:48;;;;;;;6.43;5.75;;;;;;;;;;5074226;28;20125;-62
2023/05/22 04:04:15;;;;;;;6.75;6.00;;;;;;;;;;5074000;28;20097;-63
2023/05/22 04:06:41;;;;;;;7.38;5.97;;;;;;;;;;5074090;28;20076;-63
2023/05/22 04:09:10;;;;;;;8.27;6.20;;;;;;;;;;5074130;28;20437;-62
2023/05/22 04:11:38;;;;;;;;;;;;;;;;;;5074696;28;20044;-62
2023/05/22 04:14:04;;;;;;;8.48;6.05;;;;;;;;;;5074082;28;19928;-62
2023/05/22 04:16:32;;;;;;;6.88;6.18;;;;;;;;;;5074095;28;20052;-63
2023/05/22 04:19:01;;;;;;;9.32;6.20;;;;;;;;;;5074126;28;20052;-63
2023/05/22 04:21:32;;;;;;;8.45;6.35;;;;;;;;;;5074228;28;20102;-62
2023/05/22 04:24:08;;;;;;;7.40;6.22;;;;;;;;;;5073794;28;20526;-62
2023/05/22 04:26:35;;;;;;;9.57;6.28;;;;;;;;;;5073910;28;20110;-63
2023/05/22 04:29:02;;;;;;;9.02;6.47;;;;;;;;;;5073993;28;20055;-62
2023/05/22 04:31:29;;;;;;;8.32;6.50;;;;;;;;;;5073965;28;20044;-63
2023/05/22 04:33:55;;;;;;;8.82;6.35;;;;;;;;;;5073733;28;20510;-62
2023/05/22 04:36:24;;;;;;;6.82;5.97;;;;;;;;;;5073522;28;20458;-62
2023/05/22 04:38:51;;;;;;;8.68;6.50;;;;;;;;;;5072464;28;20191;-63
2023/05/22 04:41:18;;;;;;;9.40;6.88;;;;;;;;;;5073539;28;20052;-62
2023/05/22 04:43:47;;;;;;;8.80;6.20;;;;;;;;;;5073440;28;20057;-62
2023/05/22 04:46:14;;;;;;;7.38;6.55;;;;;;;;;;5073591;28;20106;-62
2023/05/22 04:48:41;;;;;;;7.93;6.78;;;;;;;;;;5073643;28;20059;-63
2023/05/22 04:51:08;;;;;;;7.13;6.40;;;;;;;;;;5073438;28;20076;-62
2023/05/22 04:53:35;;;;;;;9.05;6.90;;;;;;;;;;5073488;28;20410;-63
2023/05/22 04:56:02;;;;;;;11.30;6.90;;;;;;;;;;5073265;28;20056;-63
2023/05/22 04:58:28;;;;;;;7.30;6.50;;;;;;;;;;5073127;28;20052;-63
2023/05/22 05:00:56;;;;;;;8.20;6.75;;;;;;;;;;5073413;28;20080;-62
2023/05/22 05:03:24;;;;;;;8.32;6.53;;;;;;;;;;5073034;28;20131;-63
2023/05/22 05:05:51;;;;;;;10.10;7.28;;;;;;;;;;5072819;28;20049;-63
2023/05/22 05:08:17;;;;;;;9.20;6.72;;;;;;;;;;5073299;28;20084;-63
2023/05/22 05:10:44;;;;;;;8.77;6.63;;;;;;;;;;5072966;28;20106;-62
2023/05/22 05:13:10;;;;;;;7.43;6.47;;;;;;;;;;5072859;28;20048;-63
2023/05/22 05:15:37;;;;;;;8.05;6.88;;;;;;;;;;5073105;28;20045;-62
2023/05/22 05:18:03;;;;;;;7.47;6.10;;;;;;;;;;5072997;28;20049;-62
2023/05/22 05:20:30;;;;;;;6.65;5.97;;;;;;;;;;5072854;28;20046;-62
2023/05/22 05:22:56;;;;;;;9.10;6.57;;;;;;;;;;5072690;28;20102;-62
2023/05/22 05:25:22;;;;;;;9.73;6.72;;;;;;;;;;5072517;28;20086;-62
2023/05/22 05:27:49;;;;;;;8.15;6.63;;;;;;;;;;5072489;28;20074;-62
2023/05/22 05:30:15;;;;;;;7.15;6.22;;;;;;;;;;5072564;28;20048;-62
2023/05/22 05:32:45;;;;;;;10.25;6.80;;;;;;;;;;5072715;28;20407;-62
2023/05/22 05:35:12;;;;;;;10.27;7.30;;;;;;;;;;5072637;28;20044;-62
2023/05/22 05:37:38;;;;;;;9.68;6.82;;;;;;;;;;5072280;28;20091;-62
2023/05/22 05:40:06;;;;;;;8.75;7.30;;;;;;;;;;5072645;28;20110;-62
2023/05/22 05:42:32;;;;;;;10.20;6.68;;;;;;;;;;5072393;28;20061;-63
2023/05/22 05:44:58;;;;;;;9.27;7.30;;;;;;;;;;5072509;28;20048;-63
2023/05/22 05:47:25;;;;;;;9.27;6.32;;;;;;;;;;5072294;28;20125;-62
2023/05/22 05:49:51;;;;;;;7.97;7.00;;;;;;;;;;5072041;28;20040;-63
2023/05/22 05:52:18;;;;;;;9.57;6.78;;;;;;;;;;5072494;28;20098;-62
2023/05/22 05:54:46;;;;;;;9.32;7.15;;;;;;;;;;5072229;28;20113;-62
2023/05/22 05:57:13;;;;;;;8.13;6.53;;;;;;;;;;5072381;28;20055;-63
2023/05/22 05:59:40;;;;;;;8.00;6.95;;;;;;;;;;5065412;28;20044;-62
2023/05/22 06:02:06;;;;;;;7.88;7.07;;;;;;;;;;5061658;28;20118;-61
2023/05/22 06:04:33;;;;;;;8.85;7.20;;;;;;;;;;5071792;28;20114;-62
2023/05/22 06:07:00;;;;;;;9.23;6.80;;;;;;;;;;5071837;28;20080;-62
2023/05/22 06:09:27;;;;;;;9.60;6.07;;;;;;;;;;5072169;28;20131;-63
2023/05/22 06:11:53;;;;;;;7.50;6.70;;;;;;;;;;5072113;28;20048;-62
2023/05/22 06:14:20;;;;;;;8.20;6.55;;;;;;;;;;5072132;28;20040;-63
2023/05/22 06:16:46;;;;;;;8.10;6.50;;;;;;;;;;5071732;28;20131;-62
2023/05/22 06:19:13;;;;;;;7.70;6.70;;;;;;;;;;5053935;28;20131;-62
2023/05/22 06:21:40;;;;;;;8.27;6.20;;;;;;;;;;5052025;28;20052;-63
2023/05/22 06:24:06;;;;;;;8.57;6.40;;;;;;;;;;5067295;28;20343;-63
2023/05/22 06:26:33;;;;;;;9.07;6.20;;;;;;;;;;5071564;28;20492;-63
2023/05/22 06:28:59;;;;;;;7.85;6.53;;;;;;;;;;5071699;28;20048;-63
2023/05/22 06:31:26;;;;;;;7.75;5.80;;;;;;;;;;5070458;28;20056;-62
2023/05/22 06:33:53;;;;;;;10.20;6.47;;;;;;;;;;5071617;28;20053;-62
2023/05/22 06:36:20;;;;;;;7.13;6.43;;;;;;;;;;5071580;28;20487;-62
2023/05/22 06:38:48;;;;;;;7.85;6.70;;;;;;;;;;5071450;28;20105;-62
2023/05/22 06:41:14;;;;;;;;;;;;;;;;;;5072116;28;20056;-62
2023/05/22 06:43:41;;;;;;;7.63;6.00;;;;;;;;;;5071510;28;19943;-62
2023/05/22 06:46:07;;;;;;;7.82;6.03;;;;;;;;;;5066995;28;20110;-62
2023/05/22 06:48:34;;;;;;;7.43;5.88;;;;;;;;;;5051432;28;20167;-62
2023/05/22 06:51:01;;;;;;;8.68;6.32;;;;;;;;;;5068727;28;20040;-62
2023/05/22 06:53:28;;;;;;;8.93;6.70;;;;;;;;;;5059903;28;20053;-62
2023/05/22 06:55:54;;;;;;;7.20;6.50;;;;;;;;;;5068490;28;20667;-62
2023/05/22 06:58:21;;;;;;;9.13;6.60;;;;;;;;;;5071064;28;20040;-62
2023/05/22 07:00:47;;;;;;;7.35;6.10;;;;;;;;;;5071227;28;20049;-62
2023/05/22 07:03:14;;;;;;;6.72;6.00;;;;;;;;;;5074683;28;20072;-62
2023/05/22 07:05:41;;;;;;;8.40;6.00;;;;;;;;;;5075049;28;20053;-62
2023/05/22 07:08:07;;;;;;;8.52;6.20;;;;;;;;;;5068120;28;20488;-62
2023/05/22 07:10:34;;;;;;;6.63;5.93;;;;;;;;;;5056193;28;20500;-62
2023/05/22 07:13:00;;;;;;;8.85;6.32;;;;;;;;;;5072410;28;20040;-62
2023/05/22 07:15:27;;;;;;;7.60;6.30;;;;;;;;;;5075146;28;20049;-62
2023/05/22 07:17:53;;;;;;;8.13;6.55;;;;;;;;;;5075356;28;20049;-62
2023/05/22 07:20:20;;;;;;;6.93;6.25;;;;;;;;;;5075392;28;20052;-62
2023/05/22 07:22:46;;;;;;;8.35;6.43;;;;;;;;;;5075147;28;20419;-62
2023/05/22 07:25:12;;;;;;;7.32;5.93;;;;;;;;;;5075133;28;20048;-62
2023/05/22 07:27:39;;;;;;;8.38;6.05;;;;;;;;;;5075027;28;20048;-62
2023/05/22 07:30:06;;;;;;;9.80;6.78;;;;;;;;;;5074928;28;20052;-62
2023/05/22 07:32:33;;;;;;;9.00;6.93;;;;;;;;;;5071834;28;20045;-62
2023/05/22 07:34:59;;;;;;;7.30;6.50;;;;;;;;;;5051426;28;20044;-62
2023/05/22 07:37:26;;;;;;;8.98;6.57;;;;;;;;;;5073903;28;20550;-62
2023/05/22 07:39:52;;;;;;;8.27;6.70;;;;;;;;;;5074349;28;20446;-61
2023/05/22 07:42:20;;;;;;;9.82;6.38;;;;;;;;;;5074752;28;20071;-62
2023/05/22 07:44:46;;;;;;;8.77;6.38;;;;;;;;;;5059859;28;20049;-62
2023/05/22 07:47:13;;;;;;;8.70;6.53;;;;;;;;;;5075012;28;20044;-61
2023/05/22 07:49:39;;;;;;;8.65;6.55;;;;;;;;;;5065111;28;20053;-62
2023/05/22 07:52:06;;;;;;;7.32;6.63;;;;;;;;;;5069843;28;20048;-61
2023/05/22 07:54:32;;;;;;;8.27;6.03;;;;;;;;;;5074702;28;20098;-62
2023/05/22 07:57:02;;;;;;;8.15;6.40;;;;;;;;;;5074405;28;20558;-61
2023/05/22 07:59:28;;;;;;;7.13;5.40;;;;;;;;;;5059713;28;20057;-61
2023/05/22 08:01:55;;;;;;;8.02;5.85;;;;;;;;;;5062751;28;20053;-62
2023/05/22 08:04:23;;;;;;;7.07;5.40;;;;;;;;;;5054074;28;20049;-62
2023/05/22 08:06:50;;;;;;;9.17;5.77;;;;;;;;;;5054051;28;20041;-62
2023/05/22 08:09:17;;;;;;;6.83;5.63;;;;;;;;;;5054085;28;20753;-62
2023/05/22 08:11:43;;;;;;;8.57;5.32;;;;;;;;;;5054207;28;20095;-62
2023/05/22 08:14:10;;;;;;;9.32;6.00;;;;;;;;;;5053039;28;20523;-62
2023/05/22 08:16:37;;;;;;;6.07;5.53;;;;;;;;;;5053961;28;20500;-62
2023/05/22 08:19:05;;;;;;;9.40;5.63;;;;;;;;;;5068105;28;20052;-61
2023/05/22 08:21:33;;;;;;;8.73;5.20;;;;;;;;;;5054128;28;20060;-62
2023/05/22 08:24:00;;;;;;;5.85;5.28;;;;;;;;;;5068831;28;20048;-62
2023/05/22 08:26:26;;;;;;;8.40;5.05;;;;;;;;;;5074097;28;20040;-62
2023/05/22 08:28:55;;;;;;;7.53;4.80;;;;;;;;;;5073704;28;20056;-62
2023/05/22 08:31:21;;;;;;;6.10;5.03;;;;;;;;;;5073883;28;20087;-62
2023/05/22 08:33:48;;;;;;;6.43;4.95;;;;;;;;;;5074009;28;20045;-62
2023/05/22 08:36:15;;;;;;;7.78;4.80;;;;;;;;;;5071847;28;20098;-62
2023/05/22 08:38:41;;;;;;;7.40;4.68;;;;;;;;;;5073101;28;20049;-62
2023/05/22 08:41:08;;;;;;;7.57;5.47;;;;;;;;;;5072542;28;20103;-62
2023/05/22 08:43:34;;;;;;;7.25;4.55;;;;;;;;;;5072976;28;20044;-62
2023/05/22 08:46:04;;;;;;;7.20;4.82;;;;;;;;;;5073676;28;20087;-62
2023/05/22 08:48:32;;;;;;;4.85;4.35;;;;;;;;;;5073646;28;20056;-62
2023/05/22 08:50:58;;;;;;;;;;;;;;;;;;5073744;28;20044;-62
2023/05/22 08:53:26;;;;;;;6.40;5.07;;;;;;;;;;5073448;28;19920;-62
2023/05/22 08:55:53;;;;;;;7.90;4.35;;;;;;;;;;5073557;28;20139;-62
2023/05/22 08:58:20;;;;;;;6.90;4.40;;;;;;;;;;5073425;28;20079;-62
2023/05/22 09:00:47;;;;;;;7.18;4.70;;;;;;;;;;5073211;28;20102;-62
2023/05/22 09:03:13;;;;;;;6.15;4.38;;;;;;;;;;5073400;28;20506;-62
2023/05/22 09:05:40;;;;;;;6.53;4.55;;;;;;;;;;5072803;28;20530;-62
2023/05/22 09:08:07;;;;;;;6.57;4.80;;;;;;;;;;5073254;28;20049;-62
2023/05/22 09:10:46;;;;;;;5.47;3.85;;;;;;;;;;5073064;28;20056;-62
2023/05/22 09:13:22;;;;;;;5.82;3.80;;;;;;;;;;5073096;28;20101;-62
2023/05/22 09:15:49;;;;;;;6.10;4.30;;;;;;;;;;5073037;28;20109;-62
2023/05/22 09:18:15;;;;;;;5.77;3.87;;;;;;;;;;5072896;28;20048;-62
2023/05/22 09:20:41;;;;;;;5.63;4.00;;;;;;;;;;5072848;28;20817;-62
2023/05/22 09:23:13;;;;;;;5.72;3.80;;;;;;;;;;5072604;28;20063;-62
2023/05/22 09:25:41;;;;;;;7.78;3.53;;;;;;;;;;5072089;28;20045;-62
2023/05/22 09:28:07;;;;;;;4.95;3.30;;;;;;;;;;5072819;28;20114;-62
2023/05/22 09:30:35;;;;;;;3.95;3.55;;;;;;;;;;5072588;28;20636;-62
2023/05/22 09:33:08;;;;;;;6.90;3.83;;;;;;;;;;5072776;28;20048;-62
2023/05/22 09:35:35;;;;;;;4.75;3.63;;;;;;;;;;5072431;28;20053;-62
2023/05/22 09:38:02;;;;;;;4.55;3.05;;;;;;;;;;5071741;28;20103;-62
2023/05/22 09:40:30;;;;;;;7.50;3.22;;;;;;;;;;5072243;28;20492;-62
2023/05/22 09:42:57;;;;;;;3.20;2.90;;;;;;;;;;5059965;28;20045;-62
2023/05/22 09:45:23;;;;;;;5.55;3.30;;;;;;;;;;5052368;28;20128;-62
2023/05/22 09:47:50;;;;;;;4.45;3.25;;;;;;;;;;5052284;28;20095;-63
2023/05/22 09:50:17;;;;;;;5.60;3.20;;;;;;;;;;5052480;28;20045;-63
2023/05/22 09:52:45;;;;;;;5.40;3.40;;;;;;;;;;5052195;28;20045;-63
2023/05/22 09:55:12;;;;;;;5.32;3.00;;;;;;;;;;5052455;28;20053;-63
2023/05/22 09:57:39;;;;;;;2.80;2.60;;;;;;;;;;5052309;28;20052;-62
2023/05/22 10:00:10;;;;;;;3.35;2.80;;;;;;;;;;5052373;28;20061;-63
2023/05/22 10:02:37;;;;;;;4.03;3.05;;;;;;;;;;5056104;28;20533;-63
2023/05/22 10:05:05;;;;;;;4.90;3.33;;;;;;;;;;5071912;28;20063;-63
2023/05/22 10:07:36;;;;;;;5.68;3.42;;;;;;;;;;5071800;28;20522;-63
2023/05/22 10:10:04;;;;;;;5.07;3.00;;;;;;;;;;5072295;28;20590;-63
2023/05/22 10:12:31;;;;;;;4.68;3.13;;;;;;;;;;5071819;28;20480;-63
2023/05/22 10:14:59;;;;;;;5.03;3.22;;;;;;;;;;5071815;28;20098;-62
2023/05/22 10:17:26;;;;;;;5.45;3.15;;;;;;;;;;5068172;28;20102;-62
2023/05/22 10:19:53;;;;;;;4.60;3.08;;;;;;;;;;5059891;28;20545;-63
2023/05/22 10:22:21;;;;;;;3.45;3.15;;;;;;;;;;5071952;28;20446;-62
2023/05/22 10:24:48;;;;;;;3.85;2.90;;;;;;;;;;5071850;28;20056;-62
2023/05/22 10:27:15;;;;;;;4.40;3.22;;;;;;;;;;5071926;28;20125;-63
2023/05/22 10:29:54;;;;;;;4.38;3.03;;;;;;;;;;5059050;28;20045;-63
2023/05/22 10:32:29;;;;;;;5.25;3.15;;;;;;;;;;5058175;28;20049;-63
2023/05/22 10:34:55;;;;;;;3.33;2.70;;;;;;;;;;5071617;28;20057;-63
2023/05/22 10:37:25;;;;;;;4.88;2.78;;;;;;;;;;5063154;28;20045;-63
2023/05/22 10:39:51;;;;;;;4.53;2.75;;;;;;;;;;5053006;28;20128;-63
2023/05/22 10:42:17;;;;;;;3.08;2.65;;;;;;;;;;5070584;28;20049;-63
2023/05/22 10:44:45;;;;;;;5.10;2.65;;;;;;;;;;5071000;28;20503;-63
2023/05/22 10:47:12;;;;;;;5.85;2.65;;;;;;;;;;5071113;28;20048;-63
2023/05/22 10:49:43;;;;;;;5.05;2.67;;;;;;;;;;5068795;28;20052;-63
2023/05/22 10:52:10;;;;;;;6.68;2.97;;;;;;;;;;5071591;28;20048;-62
2023/05/22 10:54:37;;;;;;;6.30;3.05;;;;;;;;;;5071400;28;20131;-62
2023/05/22 10:57:15;;;;;;;6.65;3.35;;;;;;;;;;5071678;28;20094;-62
2023/05/22 10:59:41;;;;;;;3.13;2.63;;;;;;;;;;5071384;28;20098;-63
2023/05/22 11:02:24;;;;;;;3.47;2.72;;;;;;;;;;5070422;28;20450;-63
2023/05/22 11:04:51;;;;;;;3.42;2.60;;;;;;;;;;5071201;28;20454;-63
2023/05/22 11:07:17;;;;;;;3.42;2.75;;;;;;;;;;5071035;28;20045;-63
2023/05/22 11:09:47;;;;;;;5.32;2.78;;;;;;;;;;5071228;28;20058;-63
2023/05/22 11:12:17;;;;;;;4.35;2.50;;;;;;;;;;5071512;28;20052;-63
2023/05/22 11:14:48;;;;;;;2.60;2.40;;;;;;;;;;5071147;28;20044;-63
2023/05/22 11:17:26;;;;;;;4.05;2.40;;;;;;;;;;5070645;28;20048;-63
2023/05/22 11:19:59;;;;;;;2.97;2.15;;;;;;;;;;5071123;28;20048;-63
2023/05/22 11:22:32;;;;;;;3.90;2.58;;;;;;;;;;5070123;28;20094;-63
2023/05/22 11:24:59;;;;;;;3.40;2.95;;;;;;;;;;5070472;28;20105;-63
2023/05/22 11:27:25;;;;;;;3.20;2.28;;;;;;;;;;5056193;28;20123;-63
2023/05/22 11:29:53;;;;;;;3.30;2.15;;;;;;;;;;5064136;28;20049;-63
2023/05/22 11:32:21;;;;;;;4.88;2.45;;;;;;;;;;5071083;28;20109;-63
2023/05/22 11:34:49;;;;;;;3.95;2.50;;;;;;;;;;5071036;28;20041;-63
2023/05/22 11:37:19;;;;;;;3.70;2.30;;;;;;;;;;5071137;28;20102;-63
2023/05/22 11:40:04;;;;;;;2.60;2.00;;;;;;;;;;5071103;28;20128;-63
2023/05/22 11:42:31;;;;;;;2.33;2.10;;;;;;;;;;5057891;28;20144;-64
2023/05/22 11:44:58;;;;;;;3.25;2.17;;;;;;;;;;5067288;28;20041;-64
2023/05/22 11:47:28;;;;;;;5.50;2.35;;;;;;;;;;5063355;28;20071;-64
2023/05/22 11:49:58;;;;;;;2.47;2.10;;;;;;;;;;5070573;28;20131;-63
2023/05/22 11:52:28;;;;;;;3.72;2.20;;;;;;;;;;5073821;28;20040;-63
2023/05/22 11:54:55;;;;;;;2.10;1.92;;;;;;;;;;5071818;28;20051;-64
2023/05/22 11:57:21;;;;;;;2.47;1.83;;;;;;;;;;5073868;28;20102;-64
2023/05/22 11:59:48;;;;;;;2.50;1.90;;;;;;;;;;5065433;28;20495;-64
2023/05/22 12:02:15;;;;;;;3.53;1.77;;;;;;;;;;5069533;28;20052;-64
2023/05/22 12:04:41;;;;;;;6.80;2.28;;;;;;;;;;5073648;28;20057;-64
2023/05/22 12:07:08;;;;;;;4.38;1.90;;;;;;;;;;5073801;28;20041;-64
2023/05/22 12:09:34;;;;;;;3.72;2.03;;;;;;;;;;5072295;28;20045;-64
2023/05/22 12:12:00;;;;;;;2.42;1.98;;;;;;;;;;5073372;28;20424;-64
2023/05/22 12:14:28;;;;;;;3.25;2.28;;;;;;;;;;5073718;28;20049;-64
2023/05/22 12:16:56;;;;;;;2.15;1.95;;;;;;;;;;5072648;28;20056;-64
2023/05/22 12:19:24;;;;;;;2.58;1.60;;;;;;;;;;5073149;28;20447;-64
2023/05/22 12:21:51;;;;;;;2.67;1.90;;;;;;;;;;5073481;28;20495;-64
2023/05/22 12:24:23;;;;;;;4.38;2.10;;;;;;;;;;5072202;28;20048;-64
2023/05/22 12:26:50;;;;;;;2.67;1.70;;;;;;;;;;5072921;28;20103;-64
2023/05/22 12:29:17;;;;;;;4.78;2.30;;;;;;;;;;5072296;28;20070;-63
2023/05/22 12:31:45;;;;;;;3.55;2.10;;;;;;;;;;5073201;28;20098;-64
2023/05/22 12:34:11;;;;;;;2.22;2.05;;;;;;;;;;5073174;28;20048;-64
2023/05/22 12:36:39;;;;;;;2.85;1.90;;;;;;;;;;5070615;28;20124;-64
2023/05/22 12:39:07;;;;;;;2.00;1.90;;;;;;;;;;5072992;28;20389;-64
2023/05/22 12:41:33;;;;;;;3.92;2.20;;;;;;;;;;5072881;28;20138;-64
2023/05/22 12:44:00;;;;;;;2.05;1.92;;;;;;;;;;5072396;28;20087;-64
2023/05/22 12:46:29;;;;;;;2.45;2.08;;;;;;;;;;5072981;28;20487;-64
2023/05/22 12:48:55;;;;;;;3.40;1.80;;;;;;;;;;5073038;28;20049;-64
2023/05/22 12:51:23;;;;;;;2.55;1.85;;;;;;;;;;5072793;28;20044;-64
2023/05/22 12:53:49;;;;;;;2.67;1.98;;;;;;;;;;5073060;28;20045;-63
2023/05/22 12:56:15;;;;;;;2.65;2.08;;;;;;;;;;5062002;28;20077;-64
2023/05/22 12:58:42;;;;;;;3.60;2.15;;;;;;;;;;5064679;28;20060;-64
2023/05/22 13:01:09;;;;;;;5.78;2.35;;;;;;;;;;5072322;28;20051;-64
2023/05/22 13:03:35;;;;;;;2.58;2.13;;;;;;;;;;5072301;28;21555;-63
2023/05/22 13:06:01;;;;;;;7.72;2.42;;;;;;;;;;5057086;28;20451;-64
2023/05/22 13:08:28;;;;;;;4.88;2.33;;;;;;;;;;5052495;28;20103;-65
2023/05/22 13:10:54;;;;;;;9.98;3.70;;;;;;;;;;5052858;28;20130;-65
2023/05/22 13:13:21;;;;;;;3.38;2.50;;;;;;;;;;5038317;28;20057;-65
2023/05/22 13:15:47;;;;;;;15.32;4.22;;;;;;;;;;5052453;28;20053;-66
2023/05/22 13:18:14;;;;;;;9.75;3.42;;;;;;;;;;5052489;28;20507;-66
2023/05/22 13:20:40;;;;;;;3.08;2.40;;;;;;;;;;5052391;28;20476;-66
2023/05/22 13:23:07;;;;;;;4.65;2.60;;;;;;;;;;5044549;28;20057;-65
2023/05/22 13:25:33;;;;;;;4.28;2.67;;;;;;;;;;5052165;28;20053;-65
2023/05/22 13:28:00;;;;;;;7.20;2.95;;;;;;;;;;5052404;28;20052;-65
2023/05/22 13:30:27;;;;;;;3.50;2.38;;;;;;;;;;5048421;28;20496;-66
2023/05/22 13:32:54;;;;;;;8.25;3.20;;;;;;;;;;5040325;28;20476;-65
2023/05/22 13:35:20;;;;;;;11.82;3.80;;;;;;;;;;5052182;28;20493;-65
2023/05/22 13:37:47;;;;;;;6.72;3.10;;;;;;;;;;5052005;28;20048;-64
2023/05/22 13:40:13;;;;;;;5.88;3.40;;;;;;;;;;5051096;28;20041;-65
2023/05/22 13:42:40;;;;;;;10.18;3.67;;;;;;;;;;5051218;28;20077;-66
2023/05/22 13:45:07;;;;;;;5.22;3.13;;;;;;;;;;5037978;28;20135;-65
2023/05/22 13:47:33;;;;;;;6.15;3.22;;;;;;;;;;5051839;28;20049;-65
2023/05/22 13:50:00;;;;;;;3.10;2.80;;;;;;;;;;5036540;28;20050;-65
2023/05/22 13:52:27;;;;;;;4.15;3.28;;;;;;;;;;5051725;28;20516;-64
2023/05/22 13:54:54;;;;;;;13.50;4.25;;;;;;;;;;5048782;28;20392;-64
2023/05/22 13:57:21;;;;;;;7.05;2.80;;;;;;;;;;5068931;28;20045;-65
2023/05/22 13:59:47;;;;;;;3.60;2.80;;;;;;;;;;5071043;28;20446;-65
2023/05/22 14:02:14;;;;;;;3.42;2.92;;;;;;;;;;5068882;28;20053;-65
2023/05/22 14:04:40;;;;;;;3.55;3.25;;;;;;;;;;5050428;28;20041;-65
2023/05/22 14:07:07;;;;;;;11.13;4.15;;;;;;;;;;5060059;28;20107;-65
2023/05/22 14:09:33;;;;;;;3.65;3.28;;;;;;;;;;5051240;28;20575;-64
2023/05/22 14:11:59;;;;;;;3.50;3.20;;;;;;;;;;5060244;28;20080;-65
2023/05/22 14:14:26;;;;;;;4.18;3.78;;;;;;;;;;5066484;28;20466;-64
2023/05/22 14:16:53;;;;;;;5.50;3.83;;;;;;;;;;5072141;28;20044;-64
2023/05/22 14:19:19;;;;;;;4.05;3.55;;;;;;;;;;5072142;28;20049;-65
2023/05/22 14:21:47;;;;;;;5.60;3.83;;;;;;;;;;5071991;28;20052;-65
2023/05/22 14:24:14;;;;;;;4.05;3.65;;;;;;;;;;5071884;28;20056;-64
2023/05/22 14:26:41;;;;;;;4.88;4.38;;;;;;;;;;5071746;28;20098;-64
2023/05/22 14:29:07;;;;;;;6.07;4.20;;;;;;;;;;5058463;28;20055;-64
2023/05/22 14:31:47;;;;;;;5.70;3.80;;;;;;;;;;5070700;28;20076;-63
2023/05/22 14:34:17;;;;;;;8.00;4.35;;;;;;;;;;5070692;28;20132;-63
2023/05/22 14:36:43;;;;;;;5.88;4.28;;;;;;;;;;5071352;28;20079;-64
2023/05/22 14:39:10;;;;;;;4.57;4.15;;;;;;;;;;5070925;28;20081;-64
2023/05/22 14:41:36;;;;;;;6.00;4.00;;;;;;;;;;5071288;28;20052;-64
2023/05/22 14:44:03;;;;;;;6.38;3.70;;;;;;;;;;5070376;28;20492;-63
2023/05/22 14:46:30;;;;;;;4.57;4.10;;;;;;;;;;5056904;28;20090;-64